Latest Weather Observations for Ballera

IDQ60801

Issued at 6:42 am EST Wednesday 8 April 2020 (issued every 10 minutes, with the page automatically refreshed every 10 minutes)

About weather observations | Map of weather stations | Latest weather observations for QLD | Other Formats
Station Details ID: 045009 Name: BALLERA GAS FIELD Lat: -27.40 Lon: 141.81 Height: 114.5 m
Data from the previous 72 hours. | See also: Recent months at Ballera
Date/Time
EST
Temp
°C
App
Temp
°C
Dew
Point
°C
Rel
Hum
%
Delta-T
°C
Wind Press
QNH
hPa
Press
MSL
hPa
Rain since
9am
mm
Dir  Spd
km/h
Gust
km/h
Spd
kts
Gust
kts
08/06:30am 16.8 13.4 10.4 66 3.4 SE 19 22 10 12 1017.5 1017.0 0.0
08/06:00am 16.9 13.3 10.5 66 3.4 SE 20 24 11 13 1017.1 1016.6 0.0
08/05:30am 17.0 13.1 10.8 67 3.3 SE 22 28 12 15 1016.8 1016.3 0.0
08/05:00am 16.9 13.0 10.7 67 3.3 SE 22 28 12 15 1016.6 1016.1 0.0
08/04:30am 17.2 13.4 11.0 67 3.4 SE 22 28 12 15 1016.3 1015.8 0.0
08/04:00am 17.1 13.3 11.2 68 3.2 SE 22 28 12 15 1015.9 1015.4 0.0
08/03:30am 17.2 13.4 11.2 68 3.3 SE 22 26 12 14 1016.0 1015.5 0.0
08/03:00am 17.5 13.7 11.1 66 3.5 SSE 22 28 12 15 1016.3 1015.8 0.0
08/02:30am 18.0 14.5 10.9 63 3.9 SSE 20 24 11 13 1016.5 1016.0 0.0
08/02:00am 18.4 15.0 10.5 60 4.3 SSE 19 24 10 13 1016.7 1016.2 0.0
08/01:30am 18.8 15.4 10.6 59 4.4 SSE 19 22 10 12 1016.6 1016.1 0.0
08/01:00am 19.1 16.0 10.4 57 4.7 SE 17 20 9 11 1016.6 1016.1 0.0
08/12:30am 19.4 16.3 10.4 56 4.9 SE 17 19 9 10 1016.7 1016.2 0.0
08/12:00am 19.6 16.6 10.6 56 4.9 SE 17 22 9 12 1016.8 1016.3 0.0
 
Date/Time
EST
Temp
°C
App
Temp
°C
Dew
Point
°C
Rel
Hum
%
Delta-T
°C
Wind Press
QNH
hPa
Press
MSL
hPa
Rain since
9am
mm
Dir  Spd
km/h
Gust
km/h
Spd
kts
Gust
kts
07/11:30pm 19.7 17.1 10.7 56 4.9 SE 15 17 8 9 1017.2 1016.7 0.0
07/11:00pm 19.9 17.3 10.6 55 5.1 SE 15 19 8 10 1017.5 1017.0 0.0
07/10:30pm 20.3 17.7 10.7 54 5.3 SE 15 19 8 10 1017.9 1017.4 0.0
07/10:00pm 20.5 17.9 10.6 53 5.4 SE 15 19 8 10 1017.9 1017.4 0.0
07/09:30pm 20.6 17.6 10.7 53 5.4 SE 17 20 9 11 1017.7 1017.2 0.0
07/09:00pm 20.9 18.1 10.1 50 5.9 SE 15 17 8 9 1017.6 1017.1 0.0
07/08:30pm 21.6 18.4 10.1 48 6.3 SSE 17 19 9 10 1017.2 1016.7 0.0
07/08:00pm 22.2 18.9 9.7 45 6.8 SE 17 20 9 11 1016.9 1016.4 0.0
07/07:30pm 22.4 19.8 9.2 43 7.1 SE 13 15 7 8 1016.7 1016.2 0.0
07/07:00pm 23.2 19.9 8.1 38 8.0 SE 15 17 8 9 1016.4 1015.9 0.0
07/06:30pm 24.0 19.9 8.0 36 8.5 SE 19 22 10 12 1016.0 1015.5 0.0
07/06:00pm 24.7 20.6 7.8 34 9.0 SE 19 28 10 15 1015.7 1015.2 0.0
07/05:30pm 25.2 20.8 7.3 32 9.5 SSE 20 28 11 15 1015.8 1015.3 0.0
07/05:00pm 25.6 20.8 7.2 31 9.7 SSE 22 28 12 15 1015.8 1015.3 0.0
07/04:30pm 25.7 20.9 7.3 31 9.8 SE 22 32 12 17 1015.6 1015.1 0.0
07/04:00pm 26.5 22.4 8.5 32 9.8 SE 20 30 11 16 1015.5 1015.0 0.0
07/03:30pm 25.9 21.4 7.0 30 10.0 SE 20 32 11 17 1015.9 1015.4 0.0
07/03:00pm 25.7 21.3 7.3 31 9.8 SE 20 32 11 17 1016.2 1015.7 0.0
07/02:30pm 26.4 22.7 7.9 31 10.0 ESE 17 26 9 14 1016.3 1015.8 0.0
07/02:00pm 26.1 22.3 7.7 31 9.8 SE 17 24 9 13 1016.6 1016.1 0.0
07/01:30pm 25.7 22.0 7.8 32 9.6 ESE 17 26 9 14 1017.0 1016.5 0.0
07/01:00pm 25.5 21.7 7.6 32 9.5 SE 17 30 9 16 1017.6 1017.1 0.0
07/12:30pm 25.5 21.5 8.1 33 9.4 SE 19 26 10 14 1018.1 1017.6 0.0
07/12:00pm 24.9 21.3 8.4 35 8.9 ESE 17 28 9 15 1018.8 1018.3 0.0
07/11:30am 23.8 20.8 9.4 40 7.8 E 15 22 8 12 1019.2 1018.7 0.0
07/11:00am 23.4 20.2 10.1 43 7.3 ESE 17 24 9 13 1019.6 1019.1 0.0
07/10:30am 22.8 20.0 11.2 48 6.5 ESE 17 24 9 13 1019.7 1019.2 0.0
07/10:00am 21.7 18.2 10.2 48 6.3 ESE 19 24 10 13 1019.9 1019.4 0.0
07/09:30am 20.8 17.3 10.9 53 5.5 ESE 20 26 11 14 1019.9 1019.4 0.0
07/09:00am 19.6 16.1 10.9 57 4.7 ESE 20 26 11 14 1019.7 1019.2 0.0
07/08:30am 18.3 14.8 10.9 62 4.0 SE 20 24 11 13 1019.3 1018.8 0.0
07/08:00am 16.9 14.0 11.0 68 3.2 ESE 17 20 9 11 1018.9 1018.4 0.0
07/07:30am 15.7 13.5 10.9 73 2.6 ESE 13 17 7 9 1018.7 1018.2 0.0
07/07:00am 14.6 12.0 10.6 77 2.1 ESE 15 17 8 9 1018.3 1017.8 0.0
07/06:30am 14.4 12.1 10.6 78 2.0 SE 13 17 7 9 1018.0 1017.5 0.0
07/06:00am 14.8 12.1 10.4 75 2.3 SE 15 17 8 9 1017.6 1017.1 0.0
07/05:30am 14.9 11.9 10.5 75 2.3 SE 17 19 9 10 1017.4 1016.9 0.0
07/05:00am 15.3 12.3 10.5 73 2.5 SE 17 20 9 11 1017.2 1016.7 0.0
07/04:30am 15.8 12.1 10.3 70 2.9 SE 20 26 11 14 1016.7 1016.2 0.0
07/04:00am 16.0 12.5 10.1 68 3.1 ESE 19 22 10 12 1016.6 1016.1 0.0
07/03:30am 16.1 12.9 10.0 67 3.2 ESE 17 20 9 11 1016.7 1016.2 0.0
07/03:00am 16.7 13.4 9.6 63 3.7 SE 17 20 9 11 1016.9 1016.4 0.0
07/02:30am 17.7 14.0 9.6 59 4.3 SE 19 22 10 12 1017.3 1016.8 0.0
07/02:00am 17.6 14.2 9.2 58 4.4 SE 17 20 9 11 1017.5 1017.0 0.0
07/01:30am 16.7 14.9 9.4 62 3.8 SE 9 11 5 6 1017.7 1017.2 0.0
07/01:00am 17.3 15.1 9.5 60 4.1 SE 11 13 6 7 1018.0 1017.5 0.0
07/12:30am 17.4 15.2 9.3 59 4.2 SE 11 13 6 7 1018.2 1017.7 0.0
07/12:00am 18.2 15.1 9.0 55 4.8 SE 15 17 8 9 1018.1 1017.6 0.0
 
Date/Time
EST
Temp
°C
App
Temp
°C
Dew
Point
°C
Rel
Hum
%
Delta-T
°C
Wind Press
QNH
hPa
Press
MSL
hPa
Rain since
9am
mm
Dir  Spd
km/h
Gust
km/h
Spd
kts
Gust
kts
06/11:30pm 17.9 15.7 9.3 57 4.5 SE 11 15 6 8 1018.5 1018.0 0.0
06/11:00pm 18.4 15.9 9.7 57 4.6 SE 13 13 7 7 1018.7 1018.2 0.0
06/10:30pm 19.5 16.2 9.4 52 5.4 SE 17 20 9 11 1018.6 1018.1 0.0
06/10:00pm 19.4 16.6 10.1 55 5.0 SSE 15 17 8 9 1018.7 1018.2 0.0
06/09:30pm 20.1 16.3 9.1 49 5.8 SE 19 20 10 11 1018.6 1018.1 0.0
06/09:00pm 20.7 17.6 8.7 46 6.3 SE 15 17 8 9 1018.6 1018.1 0.0
06/08:30pm 21.0 17.9 8.9 46 6.4 SSE 15 17 8 9 1018.5 1018.0 0.0
06/08:00pm 21.3 18.2 8.9 45 6.6 SSE 15 17 8 9 1018.1 1017.6 0.0
06/07:30pm 21.9 18.7 8.4 42 7.1 SSE 15 17 8 9 1017.9 1017.4 0.0
06/07:00pm 22.8 19.0 7.4 37 8.0 SE 17 20 9 11 1017.5 1017.0 0.0
06/06:30pm 23.6 19.0 6.4 33 8.9 SE 20 26 11 14 1017.2 1016.7 0.0
06/06:00pm 24.4 19.8 6.6 32 9.2 SSE 20 26 11 14 1017.0 1016.5 0.0
06/05:30pm 25.0 20.4 6.7 31 9.6 SE 20 30 11 16 1016.9 1016.4 0.0
06/05:00pm 25.3 20.7 6.5 30 9.8 SSE 20 28 11 15 1016.7 1016.2 0.0
06/04:30pm 25.9 21.9 6.5 29 10.2 SE 17 28 9 15 1016.5 1016.0 0.0
06/04:00pm 25.8 21.4 6.4 29 10.1 SSE 19 30 10 16 1016.7 1016.2 0.0
06/03:30pm 25.4 21.7 6.1 29 10.0 SE 15 22 8 12 1016.8 1016.3 0.0
06/03:00pm 25.5 21.5 6.7 30 9.8 ESE 17 24 9 13 1016.9 1016.4 0.0
06/02:30pm 25.2 20.7 5.9 29 10.0 ESE 19 24 10 13 1017.2 1016.7 0.0
06/02:00pm 25.2 21.5 6.4 30 9.8 ESE 15 24 8 13 1017.5 1017.0 0.0
06/01:30pm 25.3 21.6 6.5 30 9.8 ESE 15 24 8 13 1018.0 1017.5 0.0
06/01:00pm 24.6 20.1 5.9 30 9.6 E 19 32 10 17 1018.5 1018.0 0.0
06/12:30pm 24.7 20.6 6.0 30 9.6 ESE 17 26 9 14 1019.1 1018.6 0.0
06/12:00pm 24.3 20.6 6.1 31 9.3 ESE 15 26 8 14 1019.7 1019.2 0.0
06/11:30am 23.9 19.9 6.7 33 8.9 ESE 17 24 9 13 1020.1 1019.6 0.0
06/11:00am 23.2 19.3 7.3 36 8.3 SE 17 24 9 13 1020.3 1019.9 0.0
06/10:30am 22.3 17.8 6.9 37 7.9 ESE 20 26 11 14 1020.6 1020.2 0.0
06/10:00am 21.3 16.6 7.9 42 7.0 ESE 22 28 12 15 1020.9 1020.4 0.0
06/09:30am 20.1 15.6 9.9 52 5.5 SE 24 32 13 17 1020.9 1020.4 0.0
06/09:20am 20.5 17.9 9.4 49 5.9 SSE 13 33 7 18 1021.0 1020.5 0.0
06/09:00am 19.7 18.1 8.7 49 5.8 SSE 7 9 4 5 1020.6 1020.2 0.0
06/08:30am 19.0 17.7 9.8 55 4.9 SSE 7 9 4 5 1020.2 1019.7 0.0
06/08:00am 17.5 15.8 8.4 55 4.7 SSE 7 9 4 5 1019.8 1019.3 0.0
06/07:30am 15.8 13.9 9.2 65 3.4 SSE 9 11 5 6 1019.3 1018.8 0.0
06/07:00am 15.2 13.2 8.7 65 3.3 SSE 9 11 5 6 1019.2 1018.7 0.0
06/06:30am 14.8 12.8 8.7 67 3.1 SSE 9 11 5 6 1018.9 1018.4 0.0
06/06:00am 15.5 13.5 8.5 63 3.6 SSE 9 11 5 6 1018.8 1018.3 0.0
06/05:30am 15.3 12.9 8.8 65 3.3 SSE 11 13 6 7 1018.6 1018.1 0.0
06/05:00am 15.4 12.2 8.6 64 3.5 SSE 15 17 8 9 1018.2 1017.7 0.0
06/04:30am 15.5 13.2 9.0 65 3.3 S 11 15 6 8 1018.1 1017.6 0.0
06/04:00am 15.2 12.1 8.9 66 3.2 S 15 17 8 9 1018.2 1017.7 0.0
06/03:30am 15.8 12.7 8.8 63 3.6 SSW 15 17 8 9 1018.3 1017.8 0.0
06/03:00am 15.8 12.5 9.5 66 3.3 SSW 17 17 9 9 1018.4 1017.9 0.0
06/02:30am 16.0 13.0 9.2 64 3.5 SW 15 17 8 9 1018.3 1017.8 0.0
06/02:00am 17.1 15.6 8.5 57 4.4 SSE 6 7 3 4 1018.0 1017.5 0.0
06/01:30am 16.7 15.1 8.7 59 4.1 SSE 7 9 4 5 1018.0 1017.5 0.0
06/01:00am 17.4 15.4 8.5 56 4.6 SSE 9 11 5 6 1018.3 1017.8 0.0
06/12:30am 17.7 15.6 8.3 54 4.8 SSE 9 11 5 6 1018.3 1017.8 0.0
06/12:00am 18.9 16.6 7.4 47 5.9 SSE 9 9 5 5 1018.4 1017.9 0.0
 
Date/Time
EST
Temp
°C
App
Temp
°C
Dew
Point
°C
Rel
Hum
%
Delta-T
°C
Wind Press
QNH
hPa
Press
MSL
hPa
Rain since
9am
mm
Dir  Spd
km/h
Gust
km/h
Spd
kts
Gust
kts
05/11:30pm 18.9 16.5 7.0 46 6.0 SSE 9 11 5 6 1018.5 1018.0 0.0
05/11:00pm 18.7 16.5 7.8 49 5.6 SSE 9 9 5 5 1018.6 1018.1 0.0
05/10:30pm 19.4 17.1 7.5 46 6.1 SSE 9 9 5 5 1018.7 1018.2 0.0
05/10:00pm 19.1 16.6 8.1 49 5.7 SSE 11 13 6 7 1018.7 1018.2 0.0
05/09:30pm 19.0 16.2 8.4 50 5.5 SSE 13 13 7 7 1018.6 1018.1 0.0
05/09:00pm 19.5 17.5 8.8 50 5.6 SSE 9 11 5 6 1018.7 1018.2 0.0
05/08:30pm 19.9 17.3 7.9 46 6.2 SSE 11 13 6 7 1018.3 1017.8 0.0
05/08:00pm 20.8 17.4 7.8 43 6.7 SSE 15 17 8 9 1018.1 1017.6 0.0
05/07:30pm 21.4 18.4 7.6 41 7.2 S 13 17 7 9 1017.8 1017.3 0.0
05/07:00pm 21.8 18.6 6.9 38 7.7 S 13 15 7 8 1017.4 1016.9 0.0
05/06:30pm 22.6 19.2 6.0 34 8.4 SSE 13 17 7 9 1016.9 1016.4 0.0
05/06:00pm 23.1 19.6 5.5 32 8.9 SSE 13 20 7 11 1016.6 1016.1 0.0
05/05:30pm 23.6 20.1 5.5 31 9.2 SSE 13 19 7 10 1016.2 1015.7 0.0
05/05:00pm 24.1 19.9 5.9 31 9.3 S 17 20 9 11 1016.0 1015.5 0.0
05/04:30pm 24.3 20.3 5.1 29 9.7 SSE 15 22 8 12 1016.0 1015.5 0.0
05/04:00pm 24.1 20.3 4.0 27 9.9 SSE 13 19 7 10 1016.1 1015.6 0.0
05/03:30pm 24.2 20.3 3.5 26 10.2 ESE 13 17 7 9 1016.1 1015.6 0.0
05/03:00pm 24.5 21.2 4.8 28 9.9 SSE 11 22 6 12 1016.2 1015.7 0.0
05/02:30pm 24.1 20.3 4.0 27 9.9 SE 13 22 7 12 1016.4 1015.9 0.0
05/02:00pm 24.5 21.6 4.8 28 9.9 S 9 20 5 11 1016.6 1016.1 0.0
05/01:30pm 23.7 20.3 4.1 28 9.7 S 11 20 6 11 1017.1 1016.6 0.0
05/01:00pm 23.3 19.9 3.8 28 9.5 SSE 11 19 6 10 1017.7 1017.2 0.0
05/12:30pm 23.4 21.0 5.3 31 9.1 SE 7 13 4 7 1018.3 1017.8 0.0
05/12:00pm 22.6 19.6 4.2 30 9.0 SSE 9 19 5 10 1018.9 1018.4 0.0
05/11:30am 22.5 19.2 4.5 31 8.9 ESE 11 19 6 10 1019.4 1018.9 0.0
05/11:00am 22.2 19.8 5.2 33 8.5 E 7 11 4 6 1019.5 1019.0 0.0
05/10:30am 21.9 19.2 5.8 35 8.1 E 9 17 5 9 1019.6 1019.1 0.0
05/10:00am 21.1 18.1 6.2 38 7.5 ENE 11 17 6 9 1019.6 1019.1 0.0
05/09:30am 20.3 17.7 7.7 44 6.5 E 11 15 6 8 1019.4 1018.9 0.0
05/09:00am 19.5 17.7 9.4 52 5.4 SE 9 13 5 7 1019.3 1018.8 0.0
05/08:30am 17.5 16.3 10.4 63 3.8 SE 7 9 4 5 1018.9 1018.4 0.0
05/08:00am 16.1 16.0 9.5 65 3.4 CALM 0 6 0 3 1018.6 1018.1 0.0
05/07:30am 14.6 14.5 9.6 72 2.6 CALM 0 0 0 0 1018.3 1017.8 0.0
05/07:00am 14.4 13.2 9.6 73 2.5 SE 6 7 3 4 1017.9 1017.4 0.0

Other formats

Comma delimited format used in spreadsheet applications
http://www.bom.gov.au/fwo/IDQ60801/IDQ60801.95487.axf

JavaScript Object Notation format (JSON) in row-major order
http://www.bom.gov.au/fwo/IDQ60801/IDQ60801.95487.json

Data quality

Most of these data are generated automatically and are frequently updated. Quality checks on data are not normally performed. It is possible for incorrect values to appear. Refer to information at About Latest Weather Observations and please check the disclaimer before using these data.